Locke, California
Current Conditions -  °F | °C
As of 1:58 AM on Thursday 23 Oct 2014 (Local Time) from KSUU Reporting Station
Clear Clear  
Wind Chill: 61°   Ceiling: Unl
Heat Index: 61°   Visibility: 10mi
Dew Point: 60°   Wind: 16mph
Humidity: 95%   Direction: 230°SW
Pressure: 29.99"   Gusts: NA
Location:  38.2298°N, 121.579°W
Report Text: KSUU 230858Z AUTO 23014KT 10SM CLR 16/15 A2999 RMK AO2 SLP162 T01620154 55006 $
Loading
Personal Weather Stations






























Interactive Weather Map
Tropical Storm Tracking
New forecast layout! Learn more

10-Day Weather Forecast

Advertisements
Track Severe Weather on mobile